Time;durP1;ratioP1;P1;durP2;ratioP2;P2;SDS_P1;SDS_P2;PMS_P1;PMS_P2;Temp;Humidity;BMP_temperature;BMP_pressure;BME280_temperature;BME280_humidity;BME280_pressure;Samples;Min_cycle;Max_cycle;Signal;HPM_P1;HPM_P2
2023/09/16 00:01:11;;;;;;;15.30;11.97;;;16.80;99.90;;;;;;5088976;28;20208;-72
2023/09/16 00:03:37;;;;;;;16.20;11.73;;;16.80;99.90;;;;;;5088688;28;20955;-72
2023/09/16 00:06:04;;;;;;;13.40;11.10;;;16.80;99.90;;;;;;5088773;28;20209;-72
2023/09/16 00:08:32;;;;;;;15.83;12.10;;;16.80;99.90;;;;;;5088602;28;20184;-72
2023/09/16 00:10:58;;;;;;;17.97;13.20;;;16.70;99.90;;;;;;5088559;28;20427;-72
2023/09/16 00:13:23;;;;;;;18.73;13.10;;;16.70;99.90;;;;;;5070392;28;21434;-72
2023/09/16 00:15:49;;;;;;;15.37;12.30;;;16.70;99.90;;;;;;5088384;28;20415;-72
2023/09/16 00:18:18;;;;;;;16.73;12.63;;;16.60;99.90;;;;;;5088594;28;20184;-72
2023/09/16 00:20:45;;;;;;;19.23;11.70;;;16.60;99.90;;;;;;5070470;28;20195;-72
2023/09/16 00:23:10;;;;;;;21.80;12.80;;;16.60;99.90;;;;;;5088467;28;20450;-72
2023/09/16 00:25:36;;;;;;;17.50;13.10;;;16.60;99.90;;;;;;5070149;28;20413;-72
2023/09/16 00:28:06;;;;;;;14.20;11.60;;;16.60;99.90;;;;;;5070094;28;20723;-72
2023/09/16 00:30:35;;;;;;;16.87;12.97;;;16.60;99.90;;;;;;5069903;28;20424;-72
2023/09/16 00:33:04;;;;;;;15.50;12.80;;;16.60;99.90;;;;;;5088324;28;20422;-72
2023/09/16 00:35:30;;;;;;;14.73;11.13;;;16.60;99.90;;;;;;5088320;28;20494;-72
2023/09/16 00:37:56;;;;;;;20.83;14.13;;;16.60;99.90;;;;;;5088212;28;20919;-72
2023/09/16 00:40:21;;;;;;;15.97;13.47;;;16.60;99.90;;;;;;5088159;28;20213;-72
2023/09/16 00:42:47;;;;;;;16.73;12.40;;;16.50;99.90;;;;;;5070112;28;20270;-72
2023/09/16 00:45:14;;;;;;;15.50;12.70;;;16.60;99.90;;;;;;5088200;28;20288;-72
2023/09/16 00:47:40;;;;;;;15.33;12.73;;;16.50;99.90;;;;;;5090610;28;20187;-72
2023/09/16 00:50:07;;;;;;;16.37;12.60;;;16.50;99.90;;;;;;5074210;28;20935;-72
2023/09/16 00:52:37;;;;;;;20.50;13.10;;;16.50;99.90;;;;;;5073936;28;20459;-72
2023/09/16 00:55:03;;;;;;;17.80;13.30;;;16.50;99.90;;;;;;5092205;28;20888;-72
2023/09/16 00:57:30;;;;;;;18.30;12.60;;;16.40;99.90;;;;;;5092338;28;20435;-72
2023/09/16 00:59:56;;;;;;;16.63;13.10;;;16.50;99.90;;;;;;5092087;28;20466;-72
2023/09/16 01:02:22;;;;;;;18.30;13.73;;;16.50;99.90;;;;;;5092078;28;20430;-72
2023/09/16 01:04:49;;;;;;;16.07;12.10;;;16.60;99.90;;;;;;5092055;28;20447;-72
2023/09/16 01:07:15;;;;;;;18.13;12.40;;;16.60;99.90;;;;;;5073967;28;20196;-72
2023/09/16 01:09:41;;;;;;;15.67;12.87;;;16.70;99.90;;;;;;5073614;28;20980;-72
2023/09/16 01:12:10;;;;;;;18.90;13.97;;;16.80;99.90;;;;;;5074257;28;20195;-72
2023/09/16 01:14:37;;;;;;;19.37;13.33;;;16.90;99.90;;;;;;5074170;28;20880;-72
2023/09/16 01:17:14;;;;;;;19.23;12.63;;;16.90;99.90;;;;;;5074874;28;21267;-72
2023/09/16 01:20:01;;;;;;;17.47;12.70;;;16.90;99.90;;;;;;5093006;28;20493;-72
2023/09/16 01:22:27;;;;;;;17.60;12.30;;;16.80;99.90;;;;;;5075658;28;20450;-72
2023/09/16 01:24:54;;;;;;;16.87;12.13;;;16.90;99.90;;;;;;5074017;28;20496;-72
2023/09/16 01:27:21;;;;;;;17.63;12.77;;;16.90;99.90;;;;;;5073858;28;20457;-72
2023/09/16 01:29:48;;;;;;;15.83;13.00;;;16.90;99.90;;;;;;5092296;28;20446;-73
2023/09/16 01:32:16;;;;;;;17.10;12.27;;;16.80;99.90;;;;;;5092156;28;20452;-71
2023/09/16 01:34:46;;;;;;;18.43;14.00;;;16.70;99.90;;;;;;5091889;28;20443;-72
2023/09/16 01:37:23;;;;;;;14.83;12.87;;;16.70;99.90;;;;;;5074269;28;20426;-72
2023/09/16 01:39:55;;;;;;;23.90;13.30;;;16.70;99.90;;;;;;5091978;28;21146;-72
2023/09/16 01:42:22;;;;;;;18.07;13.10;;;16.70;99.90;;;;;;5074102;28;20460;-72
2023/09/16 01:44:49;;;;;;;20.53;16.07;;;16.70;99.90;;;;;;5092389;28;20850;-72
2023/09/16 01:47:15;;;;;;;20.23;15.77;;;16.50;99.90;;;;;;5091920;28;20428;-73
2023/09/16 01:49:41;;;;;;;18.47;14.33;;;16.40;99.90;;;;;;5073514;28;20429;-72
2023/09/16 01:52:08;;;;;;;26.70;16.57;;;16.40;99.90;;;;;;5091651;28;20660;-72
2023/09/16 01:54:34;;;;;;;25.07;16.93;;;16.40;99.90;;;;;;5091483;28;20277;-72
2023/09/16 01:57:00;;;;;;;22.27;16.33;;;16.30;99.90;;;;;;5073873;28;20426;-72
2023/09/16 01:59:26;;;;;;;21.67;17.33;;;16.30;99.90;;;;;;5072029;28;20493;-72
2023/09/16 02:01:51;;;;;;;22.70;16.47;;;16.30;99.90;;;;;;5056373;28;20192;-72
2023/09/16 02:04:17;;;;;;;24.80;17.03;;;16.30;99.90;;;;;;5091451;28;20205;-72
2023/09/16 02:06:46;;;;;;;23.20;17.00;;;16.20;99.90;;;;;;5056648;28;20184;-72
2023/09/16 02:09:12;;;;;;;21.30;15.90;;;16.20;99.90;;;;;;5091216;28;20273;-72
2023/09/16 02:11:38;;;;;;;27.13;19.50;;;16.20;99.90;;;;;;5073031;28;20562;-72
2023/09/16 02:14:04;;;;;;;27.50;16.33;;;16.10;99.90;;;;;;5091052;28;20552;-73
2023/09/16 02:16:31;;;;;;;24.80;17.53;;;16.10;99.90;;;;;;5072810;28;20194;-71
2023/09/16 02:18:56;;;;;;;24.80;17.30;;;16.10;99.90;;;;;;5072742;28;20548;-73
2023/09/16 02:21:22;;;;;;;21.83;17.30;;;16.10;99.90;;;;;;5091317;28;20514;-72
2023/09/16 02:23:48;;;;;;;24.60;18.10;;;16.10;99.90;;;;;;5056311;28;20695;-72
2023/09/16 02:26:14;;;;;;;24.70;17.13;;;16.10;99.90;;;;;;5056259;28;20283;-71
2023/09/16 02:28:40;;;;;;;22.53;16.53;;;16.00;99.90;;;;;;5091109;28;20607;-71
2023/09/16 02:31:09;;;;;;;24.30;17.13;;;16.00;99.90;;;;;;5040062;28;20657;-72
2023/09/16 02:33:35;;;;;;;19.80;15.07;;;16.00;99.90;;;;;;5073749;28;20526;-73
2023/09/16 02:36:01;;;;;;;21.27;15.37;;;16.00;99.90;;;;;;5072771;28;20435;-72
2023/09/16 02:38:27;;;;;;;17.70;15.00;;;16.00;99.90;;;;;;5072994;28;20425;-71
2023/09/16 02:40:52;;;;;;;18.70;14.70;;;15.90;99.90;;;;;;5056333;28;20288;-71
2023/09/16 02:43:18;;;;;;;20.33;15.50;;;15.90;99.90;;;;;;5091537;28;20214;-73
2023/09/16 02:45:44;;;;;;;21.37;15.90;;;15.90;99.90;;;;;;5072925;28;20214;-72
2023/09/16 02:48:10;;;;;;;23.10;16.17;;;15.80;99.90;;;;;;5091256;28;20217;-73
2023/09/16 02:50:39;;;;;;;18.60;14.70;;;15.80;99.90;;;;;;5090641;28;20434;-73
2023/09/16 02:53:06;;;;;;;27.63;16.30;;;15.80;99.90;;;;;;5072158;28;20492;-73
2023/09/16 02:55:33;;;;;;;27.67;16.03;;;15.80;99.90;;;;;;5090337;28;20521;-72
2023/09/16 02:57:59;;;;;;;21.83;15.80;;;15.80;99.90;;;;;;5090087;28;20982;-72
2023/09/16 03:00:25;;;;;;;20.67;14.70;;;15.70;99.90;;;;;;5089594;28;20500;-72
2023/09/16 03:02:51;;;;;;;17.10;14.57;;;15.70;99.90;;;;;;5071085;28;20507;-72
2023/09/16 03:05:17;;;;;;;20.47;14.47;;;15.80;99.90;;;;;;5089603;28;20188;-72
2023/09/16 03:07:44;;;;;;;20.83;15.23;;;15.70;99.90;;;;;;5089507;28;21032;-72
2023/09/16 03:10:10;;;;;;;21.80;15.10;;;15.70;99.90;;;;;;5089139;28;20804;-72
2023/09/16 03:12:36;;;;;;;23.47;17.27;;;15.60;99.90;;;;;;5089539;28;20798;-72
2023/09/16 03:15:01;;;;;;;21.70;16.37;;;15.50;99.90;;;;;;5071236;28;20443;-72
2023/09/16 03:17:27;;;;;;;22.50;16.67;;;15.50;99.90;;;;;;5071300;28;20616;-72
2023/09/16 03:19:53;;;;;;;21.57;15.27;;;15.50;99.90;;;;;;5071034;28;20222;-72
2023/09/16 03:22:19;;;;;;;22.63;16.03;;;15.50;99.90;;;;;;5089535;28;20183;-72
2023/09/16 03:24:44;;;;;;;21.60;15.10;;;15.40;99.90;;;;;;5089215;28;20208;-72
2023/09/16 03:27:10;;;;;;;25.40;15.10;;;15.50;99.90;;;;;;5089243;28;20744;-73
2023/09/16 03:29:35;;;;;;;21.67;15.70;;;15.40;99.90;;;;;;5054520;28;20301;-72
2023/09/16 03:32:01;;;;;;;20.73;14.93;;;15.40;99.90;;;;;;5070978;28;20279;-72
2023/09/16 03:34:27;;;;;;;24.40;15.70;;;15.40;99.90;;;;;;5089348;28;20210;-72
2023/09/16 03:36:53;;;;;;;22.17;15.37;;;15.30;99.90;;;;;;5054370;28;20664;-72
2023/09/16 03:39:19;;;;;;;20.30;15.03;;;15.30;99.90;;;;;;5089160;28;20469;-73
2023/09/16 03:41:45;;;;;;;22.60;15.10;;;15.40;99.90;;;;;;5054527;28;20435;-72
2023/09/16 03:44:12;;;;;;;23.30;14.83;;;15.40;99.90;;;;;;5070689;28;20446;-72
2023/09/16 03:46:39;;;;;;;18.13;14.10;;;15.30;99.90;;;;;;5070682;28;20186;-72
2023/09/16 03:49:05;;;;;;;18.57;15.17;;;15.40;99.90;;;;;;5088997;28;20804;-72
2023/09/16 03:51:33;;;;;;;19.57;14.70;;;15.40;99.90;;;;;;5070547;28;20539;-72
2023/09/16 03:53:59;;;;;;;18.60;12.63;;;15.40;99.90;;;;;;5070601;28;20449;-72
2023/09/16 03:56:24;;;;;;;17.13;14.10;;;15.40;99.90;;;;;;5071137;28;20933;-72
2023/09/16 03:58:50;;;;;;;14.83;11.93;;;15.40;99.90;;;;;;5070612;28;20461;-72
2023/09/16 04:01:15;;;;;;;16.90;12.97;;;15.40;99.90;;;;;;5088993;28;20208;-72
2023/09/16 04:03:42;;;;;;;18.07;13.37;;;15.30;99.90;;;;;;5070615;28;20305;-72
2023/09/16 04:06:08;;;;;;;20.47;13.20;;;15.20;99.90;;;;;;5070647;28;20193;-72
2023/09/16 04:08:34;;;;;;;17.93;13.33;;;15.20;99.90;;;;;;5070666;28;21003;-73
2023/09/16 04:10:59;;;;;;;18.80;13.83;;;15.20;99.90;;;;;;5089015;28;20189;-72
2023/09/16 04:13:25;;;;;;;18.40;14.40;;;15.20;99.90;;;;;;5088894;28;20438;-72
2023/09/16 04:15:51;;;;;;;18.10;14.60;;;15.20;99.90;;;;;;5088908;28;20243;-72
2023/09/16 04:18:16;;;;;;;21.43;15.93;;;15.20;99.90;;;;;;5089061;28;20226;-72
2023/09/16 04:20:44;;;;;;;20.70;13.87;;;15.30;99.90;;;;;;5070239;28;20286;-72
2023/09/16 04:23:10;;;;;;;17.83;14.13;;;15.40;99.90;;;;;;5088271;28;20733;-72
2023/09/16 04:25:35;;;;;;;21.50;14.93;;;15.40;99.90;;;;;;5070612;28;20508;-72
2023/09/16 04:28:03;;;;;;;22.87;14.23;;;15.40;99.90;;;;;;5070539;28;20927;-72
2023/09/16 04:30:29;;;;;;;18.30;12.93;;;15.30;99.90;;;;;;5071019;28;20648;-72
2023/09/16 04:32:55;;;;;;;16.77;13.20;;;15.30;99.90;;;;;;5088621;28;20509;-72
2023/09/16 04:35:21;;;;;;;15.63;12.17;;;15.30;99.90;;;;;;5088602;28;20508;-72
2023/09/16 04:37:46;;;;;;;13.83;11.60;;;15.20;99.90;;;;;;5088832;28;20615;-72
2023/09/16 04:40:12;;;;;;;18.90;12.67;;;15.10;99.90;;;;;;5088521;28;20257;-72
2023/09/16 04:42:39;;;;;;;18.50;13.40;;;15.00;99.90;;;;;;5088606;28;20186;-72
2023/09/16 04:45:05;;;;;;;16.60;12.77;;;14.90;99.90;;;;;;5070189;28;20243;-72
2023/09/16 04:47:31;;;;;;;16.60;11.83;;;14.70;99.90;;;;;;5070196;28;20469;-73
2023/09/16 04:49:57;;;;;;;17.23;13.60;;;14.70;99.90;;;;;;5088908;28;20458;-73
2023/09/16 04:52:25;;;;;;;15.50;12.50;;;14.70;99.90;;;;;;5088297;28;20212;-72
2023/09/16 04:54:54;;;;;;;18.27;13.70;;;14.70;99.90;;;;;;5088406;28;20210;-72
2023/09/16 04:57:20;;;;;;;19.40;14.77;;;14.90;99.90;;;;;;5070638;28;20430;-71
2023/09/16 04:59:47;;;;;;;18.03;14.10;;;14.80;99.90;;;;;;5070574;28;20465;-72
2023/09/16 05:02:13;;;;;;;20.43;13.77;;;14.90;99.90;;;;;;5089130;28;20417;-72
2023/09/16 05:04:39;;;;;;;17.60;13.23;;;14.90;99.90;;;;;;5089055;28;20446;-72
2023/09/16 05:07:04;;;;;;;18.60;13.80;;;14.90;99.90;;;;;;5054575;28;20459;-72
2023/09/16 05:09:30;;;;;;;14.10;11.63;;;14.90;99.90;;;;;;5089146;28;20210;-72
2023/09/16 05:11:56;;;;;;;24.30;15.53;;;14.80;99.90;;;;;;5070896;28;20637;-71
2023/09/16 05:14:24;;;;;;;20.17;12.93;;;14.80;99.90;;;;;;5088929;28;20434;-72
2023/09/16 05:16:49;;;;;;;17.10;12.93;;;14.80;99.90;;;;;;5088980;28;20566;-73
2023/09/16 05:19:15;;;;;;;20.13;15.40;;;14.80;99.90;;;;;;5070163;28;20475;-72
2023/09/16 05:21:41;;;;;;;19.40;14.80;;;14.80;99.90;;;;;;5088645;28;20183;-72
2023/09/16 05:24:06;;;;;;;18.90;14.37;;;14.80;99.90;;;;;;5070563;28;20199;-72
2023/09/16 05:26:32;;;;;;;25.70;15.17;;;14.80;99.90;;;;;;5088460;28;20189;-72
2023/09/16 05:28:58;;;;;;;18.60;14.57;;;14.80;99.90;;;;;;5070013;28;20199;-72
2023/09/16 05:31:24;;;;;;;19.57;13.60;;;14.70;99.90;;;;;;5088397;28;20567;-72
2023/09/16 05:33:50;;;;;;;22.70;16.10;;;14.70;99.90;;;;;;5090532;28;20211;-73
2023/09/16 05:36:16;;;;;;;21.20;15.40;;;14.70;99.90;;;;;;5073403;28;20422;-72
2023/09/16 05:38:42;;;;;;;22.90;14.67;;;14.70;99.90;;;;;;5091611;28;20499;-72
2023/09/16 05:41:07;;;;;;;20.53;15.47;;;14.70;99.90;;;;;;5091560;28;20450;-71
2023/09/16 05:43:33;;;;;;;19.20;14.50;;;14.70;99.90;;;;;;5073394;28;20309;-72
2023/09/16 05:46:01;;;;;;;18.70;13.90;;;14.80;99.90;;;;;;5091811;28;20285;-72
2023/09/16 05:48:26;;;;;;;19.30;15.00;;;14.90;99.90;;;;;;5091557;28;20176;-72
2023/09/16 05:50:56;;;;;;;21.13;15.70;;;14.90;99.90;;;;;;5091738;28;20819;-72
2023/09/16 05:53:22;;;;;;;22.80;15.87;;;14.90;99.90;;;;;;5091540;28;20210;-72
2023/09/16 05:55:48;;;;;;;22.63;15.40;;;15.00;99.90;;;;;;5091420;28;20424;-72
2023/09/16 05:58:13;;;;;;;22.37;16.70;;;15.10;99.90;;;;;;5073209;28;20194;-71
2023/09/16 06:00:39;;;;;;;21.80;15.30;;;15.30;99.90;;;;;;5091341;28;20316;-72
2023/09/16 06:03:04;;;;;;;16.40;12.07;;;15.70;99.90;;;;;;5091750;28;20177;-72
2023/09/16 06:05:30;;;;;;;19.80;12.20;;;16.30;99.90;;;;;;5091340;28;20183;-71
2023/09/16 06:07:56;;;;;;;14.20;11.17;;;17.00;99.90;;;;;;5073229;28;20177;-71
2023/09/16 06:10:21;;;;;;;18.43;10.80;;;17.60;99.90;;;;;;5091358;28;20589;-72
2023/09/16 06:12:47;;;;;;;13.40;11.43;;;18.10;99.90;;;;;;5091359;28;20249;-72
2023/09/16 06:15:13;;;;;;;15.03;12.57;;;18.50;99.90;;;;;;5073208;28;20244;-72
2023/09/16 06:17:38;;;;;;;17.53;13.00;;;18.50;99.90;;;;;;5091866;28;20215;-72
2023/09/16 06:20:05;;;;;;;14.93;12.97;;;18.30;99.90;;;;;;5091465;28;20475;-72
2023/09/16 06:22:30;;;;;;;17.37;12.40;;;18.30;99.90;;;;;;5091781;28;20206;-72
2023/09/16 06:24:56;;;;;;;17.70;13.03;;;18.40;99.90;;;;;;5091372;28;20958;-71
2023/09/16 06:27:22;;;;;;;16.37;13.63;;;18.30;99.90;;;;;;5091420;28;20187;-72
2023/09/16 06:29:48;;;;;;;20.13;14.40;;;17.90;99.90;;;;;;5056497;28;20236;-72
2023/09/16 06:32:14;;;;;;;16.30;13.50;;;17.50;99.90;;;;;;5073406;28;20192;-71
2023/09/16 06:34:40;;;;;;;17.60;14.53;;;17.40;99.90;;;;;;5073051;28;20445;-72
2023/09/16 06:37:05;;;;;;;18.70;15.60;;;17.20;99.90;;;;;;5090678;28;20316;-72
2023/09/16 06:39:34;;;;;;;21.67;15.10;;;17.00;99.90;;;;;;5090938;28;20275;-72
2023/09/16 06:42:00;;;;;;;22.10;16.43;;;17.00;99.90;;;;;;5039466;28;20189;-72
2023/09/16 06:44:25;;;;;;;21.20;15.47;;;16.90;99.90;;;;;;5071811;28;20868;-72
2023/09/16 06:46:51;;;;;;;20.13;16.30;;;16.80;99.90;;;;;;5091157;28;20182;-72
2023/09/16 06:49:19;;;;;;;18.73;14.83;;;16.80;99.90;;;;;;5072940;28;20197;-72
2023/09/16 06:51:45;;;;;;;16.43;14.10;;;16.80;99.90;;;;;;5091034;28;20229;-72
2023/09/16 06:54:11;;;;;;;21.37;15.73;;;16.70;99.90;;;;;;5090988;28;20474;-72
2023/09/16 06:56:36;;;;;;;21.63;15.90;;;16.80;99.90;;;;;;5090947;28;20197;-72
2023/09/16 06:59:02;;;;;;;22.20;14.73;;;16.80;99.90;;;;;;5090883;28;20243;-72
2023/09/16 07:01:27;;;;;;;20.77;14.63;;;16.80;99.90;;;;;;5072574;28;20179;-72
2023/09/16 07:03:53;;;;;;;19.20;15.73;;;16.90;99.90;;;;;;5072544;28;20675;-71
2023/09/16 07:06:19;;;;;;;20.67;15.07;;;16.90;99.90;;;;;;5072413;28;20186;-71
2023/09/16 07:08:44;;;;;;;21.23;16.07;;;16.90;99.90;;;;;;5090767;28;20704;-72
2023/09/16 07:11:12;;;;;;;19.80;15.33;;;16.90;99.90;;;;;;5090488;28;20210;-72
2023/09/16 07:13:38;;;;;;;20.27;15.10;;;17.00;99.90;;;;;;5090421;28;20206;-71
2023/09/16 07:16:04;;;;;;;21.07;15.90;;;17.00;99.90;;;;;;5055499;28;20480;-72
2023/09/16 07:18:31;;;;;;;21.03;16.17;;;17.10;99.90;;;;;;5090226;28;20881;-72
2023/09/16 07:20:56;;;;;;;20.77;15.57;;;17.10;99.90;;;;;;5071787;28;20984;-72
2023/09/16 07:23:22;;;;;;;23.37;16.73;;;17.20;99.90;;;;;;5071791;28;20467;-72
2023/09/16 07:25:55;;;;;;;22.57;16.57;;;17.20;99.90;;;;;;5089787;28;20186;-72
2023/09/16 07:28:21;;;;;;;20.37;14.33;;;17.30;99.90;;;;;;5089551;28;20187;-72
2023/09/16 07:30:46;;;;;;;20.93;15.40;;;17.30;99.90;;;;;;5071213;28;20532;-72
2023/09/16 07:33:12;;;;;;;22.07;15.47;;;17.40;99.90;;;;;;5089085;28;20691;-72
2023/09/16 07:35:37;;;;;;;22.53;15.20;;;17.50;99.90;;;;;;5054631;28;20197;-72
2023/09/16 07:38:03;;;;;;;19.33;14.10;;;17.70;99.90;;;;;;5054383;28;20198;-72
2023/09/16 07:40:29;;;;;;;18.33;14.83;;;17.80;99.90;;;;;;5089144;28;20986;-72
2023/09/16 07:42:55;;;;;;;16.80;12.93;;;17.90;99.90;;;;;;5070632;28;20282;-72
2023/09/16 07:45:20;;;;;;;15.87;13.40;;;18.00;99.90;;;;;;5054241;28;20528;-72
2023/09/16 07:47:46;;;;;;;16.80;12.83;;;18.10;99.90;;;;;;5089125;28;20235;-72
2023/09/16 07:50:11;;;;;;;15.80;13.20;;;18.20;99.90;;;;;;5089101;28;20185;-72
2023/09/16 07:52:37;;;;;;;19.17;13.77;;;18.30;99.90;;;;;;5070557;28;20208;-72
2023/09/16 07:55:03;;;;;;;20.20;14.20;;;18.40;99.90;;;;;;5070354;28;20214;-72
2023/09/16 07:57:28;;;;;;;18.97;13.37;;;18.60;99.90;;;;;;5070734;28;20266;-72
2023/09/16 07:59:54;;;;;;;21.87;14.03;;;18.60;99.90;;;;;;5088758;28;20206;-72
2023/09/16 08:02:19;;;;;;;15.50;13.10;;;18.70;99.90;;;;;;5070689;28;20183;-71
2023/09/16 08:04:45;;;;;;;14.43;11.90;;;18.80;99.90;;;;;;5088852;28;20541;-72
2023/09/16 08:07:14;;;;;;;18.00;12.83;;;18.90;99.90;;;;;;5088809;28;20185;-72
2023/09/16 08:09:39;;;;;;;23.80;13.10;;;19.10;99.90;;;;;;5088671;28;20193;-72
2023/09/16 08:12:05;;;;;;;15.60;12.53;;;19.20;99.90;;;;;;5088722;28;20438;-72
2023/09/16 08:14:30;;;;;;;13.73;10.60;;;19.30;99.90;;;;;;5088602;28;20208;-72
2023/09/16 08:16:58;;;;;;;16.83;12.87;;;19.50;99.90;;;;;;5070406;28;20186;-72
2023/09/16 08:19:23;;;;;;;18.13;13.30;;;19.50;99.90;;;;;;5088641;28;20217;-72
2023/09/16 08:21:49;;;;;;;14.07;11.57;;;19.60;99.90;;;;;;5088492;28;20905;-72
2023/09/16 08:24:15;;;;;;;18.00;12.30;;;19.70;99.90;;;;;;5088451;28;20331;-72
2023/09/16 08:26:40;;;;;;;16.73;11.43;;;19.80;99.90;;;;;;5070320;28;20187;-72
2023/09/16 08:29:06;;;;;;;15.57;11.40;;;20.00;99.90;;;;;;5088698;28;20189;-72
2023/09/16 08:31:32;;;;;;;13.70;11.23;;;20.10;99.90;;;;;;5070334;28;20198;-73
2023/09/16 08:34:03;;;;;;;13.30;11.73;;;20.30;99.90;;;;;;5088948;28;20238;-73
2023/09/16 08:36:29;;;;;;;14.50;11.80;;;20.40;99.90;;;;;;5088525;28;20224;-73
2023/09/16 08:38:54;;;;;;;11.90;10.60;;;20.50;99.90;;;;;;5088388;28;20452;-73
2023/09/16 08:41:31;;;;;;;11.60;9.37;;;20.70;99.90;;;;;;5088383;28;20394;-72
2023/09/16 08:43:59;;;;;;;15.63;10.43;;;20.90;99.90;;;;;;5070765;28;20232;-72
2023/09/16 08:46:28;;;;;;;17.50;10.07;;;21.20;99.90;;;;;;5088515;28;20981;-72
2023/09/16 08:48:58;;;;;;;14.37;9.00;;;21.30;99.90;;;;;;5053284;28;20428;-72
2023/09/16 08:51:25;;;;;;;12.73;10.00;;;21.50;99.90;;;;;;5088268;28;20442;-72
2023/09/16 08:53:52;;;;;;;10.43;9.47;;;21.50;99.90;;;;;;5088185;28;20941;-72
2023/09/16 08:56:18;;;;;;;12.53;9.07;;;21.70;99.90;;;;;;5088673;28;20761;-73
2023/09/16 08:58:44;;;;;;;11.07;9.30;;;21.90;99.90;;;;;;5070033;28;20550;-72
2023/09/16 09:01:11;;;;;;;10.97;8.80;;;22.10;99.90;;;;;;5088423;28;20423;-73
2023/09/16 09:03:37;;;;;;;9.63;8.30;;;22.20;99.90;;;;;;5069840;28;20477;-73
2023/09/16 09:06:05;;;;;;;13.20;9.10;;;22.40;99.90;;;;;;5088621;28;20430;-72
2023/09/16 09:08:34;;;;;;;12.07;9.30;;;22.60;99.90;;;;;;5090503;28;20182;-73
2023/09/16 09:10:59;;;;;;;9.23;8.33;;;23.00;99.90;;;;;;5092117;28;20429;-73
2023/09/16 09:13:27;;;;;;;10.03;8.33;;;23.30;99.90;;;;;;5073920;28;20444;-73
2023/09/16 09:15:59;;;;;;;10.40;7.43;;;23.60;99.90;;;;;;5091911;28;20189;-73
2023/09/16 09:18:27;;;;;;;12.63;7.67;;;23.90;99.90;;;;;;5091942;28;20433;-73
2023/09/16 09:20:54;;;;;;;8.60;7.60;;;24.20;99.90;;;;;;5091703;28;20695;-73
2023/09/16 09:23:19;;;;;;;9.50;7.67;;;24.60;99.90;;;;;;5091862;28;20433;-73
2023/09/16 09:25:45;;;;;;;9.63;7.70;;;25.00;99.90;;;;;;5091979;28;20788;-73
2023/09/16 09:28:13;;;;;;;9.83;7.90;;;25.60;99.90;;;;;;5073422;28;20258;-73
2023/09/16 09:30:41;;;;;;;8.17;7.27;;;25.80;99.90;;;;;;5091764;28;20181;-73
2023/09/16 09:33:15;;;;;;;8.30;7.43;;;26.30;99.90;;;;;;5073438;28;20426;-73
2023/09/16 09:35:40;;;;;;;8.27;7.27;;;26.80;99.90;;;;;;5091642;28;20423;-73
2023/09/16 09:38:06;;;;;;;13.10;7.53;;;27.20;99.90;;;;;;5091620;28;20893;-73
2023/09/16 09:40:32;;;;;;;7.90;6.40;;;27.50;99.90;;;;;;5072931;28;20233;-73
2023/09/16 09:42:59;;;;;;;8.03;6.33;;;27.70;99.90;;;;;;5073302;28;20178;-73
2023/09/16 09:45:27;;;;;;;6.93;6.23;;;27.90;99.90;;;;;;5091440;28;20211;-73
2023/09/16 09:47:53;;;;;;;9.80;6.50;;;28.10;99.90;;;;;;5091438;28;20443;-72
2023/09/16 09:50:21;;;;;;;7.93;6.03;;;28.30;99.90;;;;;;5091474;28;20685;-73
2023/09/16 09:52:48;;;;;;;8.40;6.40;;;28.50;99.90;;;;;;5091404;28;20451;-73
2023/09/16 09:55:23;;;;;;;6.60;6.10;;;28.80;99.90;;;;;;5091468;28;20932;-73
2023/09/16 09:57:52;;;;;;;7.30;6.60;;;28.90;99.90;;;;;;5072880;28;20416;-73
2023/09/16 10:00:21;;;;;;;8.03;7.23;;;29.10;99.90;;;;;;5091225;28;20463;-73
2023/09/16 10:02:47;;;;;;;10.20;7.20;;;29.20;99.90;;;;;;5091004;28;20499;-73
2023/09/16 10:05:20;;;;;;;9.03;6.63;;;29.30;99.90;;;;;;5090907;28;20433;-73
2023/09/16 10:07:47;;;;;;;6.80;6.20;;;29.20;99.90;;;;;;5090893;28;20789;-73
2023/09/16 10:10:21;;;;;;;11.53;6.37;;;29.30;99.90;;;;;;5090871;28;20898;-73
2023/09/16 10:12:49;;;;;;;8.77;6.63;;;29.50;99.90;;;;;;5072998;28;20473;-73
2023/09/16 10:15:15;;;;;;;7.90;5.33;;;29.50;99.90;;;;;;5090621;28;20436;-73
2023/09/16 10:17:42;;;;;;;5.97;5.33;;;30.00;99.90;;;;;;5072463;28;20470;-73
2023/09/16 10:20:10;;;;;;;4.67;4.37;;;30.30;99.90;;;;;;5070946;28;20221;-73
2023/09/16 10:22:39;;;;;;;5.93;5.33;;;30.30;99.90;;;;;;5090644;28;20416;-73
2023/09/16 10:25:06;;;;;;;6.10;5.50;;;30.60;99.90;;;;;;5072498;28;20532;-73
2023/09/16 10:27:36;;;;;;;5.23;4.73;;;31.00;99.90;;;;;;5090579;28;20415;-73
2023/09/16 10:30:02;;;;;;;5.37;4.87;;;30.90;99.90;;;;;;5090591;28;20879;-73
2023/09/16 10:32:29;;;;;;;4.33;3.43;;;30.80;99.90;;;;;;5090563;28;20865;-73
2023/09/16 10:34:58;;;;;;;4.30;3.90;;;30.90;99.90;;;;;;5090364;28;20532;-73
2023/09/16 10:37:25;;;;;;;8.07;4.40;;;31.10;99.90;;;;;;5072509;28;20819;-72
2023/09/16 10:39:54;;;;;;;5.67;4.60;;;31.10;99.90;;;;;;5072390;28;20464;-73
2023/09/16 10:42:21;;;;;;;5.40;4.90;;;31.20;99.90;;;;;;5072763;28;20922;-73
2023/09/16 10:44:47;;;;;;;5.43;4.93;;;31.50;99.90;;;;;;5090496;28;20441;-74
2023/09/16 10:47:16;;;;;;;4.80;4.00;;;31.40;99.90;;;;;;5090277;28;20483;-73
2023/09/16 10:49:42;;;;;;;5.07;4.57;;;31.30;99.90;;;;;;5090130;28;20872;-73
2023/09/16 10:52:14;;;;;;;5.40;4.00;;;31.40;99.90;;;;;;5089833;28;20428;-73
2023/09/16 10:54:44;;;;;;;7.43;4.43;;;31.30;99.90;;;;;;5071658;28;20436;-72
2023/09/16 10:57:20;;;;;;;6.17;4.20;;;31.50;99.90;;;;;;5089929;28;20559;-73
2023/09/16 10:59:49;;;;;;;4.47;4.07;;;31.60;99.90;;;;;;5071323;28;20521;-73
2023/09/16 11:02:41;;;;;;;5.37;4.50;;;31.60;99.90;;;;;;5089847;28;20967;-73
2023/09/16 11:05:07;;;;;;;4.07;3.67;;;31.60;99.90;;;;;;5071570;28;20450;-72
2023/09/16 11:07:33;;;;;;;4.37;4.07;;;31.70;99.90;;;;;;5089796;28;20421;-73
2023/09/16 11:10:01;;;;;;;4.43;3.90;;;31.30;99.90;;;;;;5071491;28;20185;-73
2023/09/16 11:12:27;;;;;;;7.63;3.77;;;31.60;99.90;;;;;;5054924;28;20416;-73
2023/09/16 11:14:53;;;;;;;3.50;3.20;;;31.60;99.90;;;;;;5089879;28;20493;-73
2023/09/16 11:17:22;;;;;;;7.80;3.53;;;31.40;99.90;;;;;;5054974;28;20938;-73
2023/09/16 11:19:47;;;;;;;4.50;4.10;;;31.30;99.90;;;;;;5089831;28;20206;-73
2023/09/16 11:22:13;;;;;;;3.50;3.30;;;31.60;99.90;;;;;;5090022;28;20511;-73
2023/09/16 11:24:42;;;;;;;2.93;2.83;;;31.50;99.90;;;;;;5090064;28;20263;-73
2023/09/16 11:27:08;;;;;;;3.80;3.50;;;31.40;99.90;;;;;;5072023;28;20417;-73
2023/09/16 11:29:33;;;;;;;3.07;2.67;;;31.50;99.90;;;;;;5090233;28;20469;-73
2023/09/16 11:32:01;;;;;;;3.50;3.30;;;31.40;99.90;;;;;;5089998;28;20179;-72
2023/09/16 11:34:28;;;;;;;3.20;3.00;;;31.50;99.90;;;;;;5055186;28;20455;-72
2023/09/16 11:37:00;;;;;;;3.73;3.43;;;31.60;99.90;;;;;;5071999;28;20435;-72
2023/09/16 11:39:42;;;;;;;2.80;2.60;;;31.40;99.90;;;;;;5071545;28;20506;-73
2023/09/16 11:42:08;;;;;;;4.50;3.13;;;31.60;99.90;;;;;;5089644;28;20414;-73
2023/09/16 11:44:35;;;;;;;4.00;2.30;;;31.60;99.90;;;;;;5089703;28;20513;-73
2023/09/16 11:47:02;;;;;;;2.70;2.50;;;31.30;99.90;;;;;;5089566;28;20417;-73
2023/09/16 11:49:31;;;;;;;3.27;3.07;;;31.20;99.90;;;;;;5071179;28;20489;-73
2023/09/16 11:51:57;;;;;;;3.37;3.07;;;31.30;99.90;;;;;;5089283;28;20450;-72
2023/09/16 11:54:23;;;;;;;2.83;2.63;;;31.40;99.90;;;;;;5054155;28;21044;-73
2023/09/16 11:56:49;;;;;;;3.27;3.07;;;31.30;99.90;;;;;;5089278;28;20508;-73
2023/09/16 11:59:15;;;;;;;2.87;2.67;;;31.20;99.90;;;;;;5070976;28;20928;-73
2023/09/16 12:01:42;;;;;;;3.93;3.53;;;31.30;99.90;;;;;;5089007;28;20412;-73
2023/09/16 12:04:10;;;;;;;2.90;2.70;;;31.00;99.90;;;;;;5088932;28;20198;-73
2023/09/16 12:06:37;;;;;;;3.50;3.13;;;31.00;99.90;;;;;;5089027;28;20416;-72
2023/09/16 12:09:05;;;;;;;4.53;3.20;;;30.90;99.90;;;;;;5088897;28;20496;-73
2023/09/16 12:11:32;;;;;;;3.40;3.20;;;31.00;99.90;;;;;;5070738;28;20425;-74
2023/09/16 12:14:00;;;;;;;3.30;3.10;;;30.70;99.90;;;;;;5070389;28;20440;-73
2023/09/16 12:20:01;;;;;;;2.93;2.73;;;30.60;99.90;;;;;;5088928;28;20460;-73
2023/09/16 12:22:27;;;;;;;3.43;3.03;;;30.60;99.90;;;;;;5088843;28;20489;-73
2023/09/16 12:24:53;;;;;;;4.50;3.23;;;30.60;99.90;;;;;;5089093;28;20457;-73
2023/09/16 12:27:19;;;;;;;3.87;3.10;;;30.80;99.90;;;;;;5071061;28;20193;-73
2023/09/16 12:29:45;;;;;;;3.20;2.83;;;30.80;99.90;;;;;;5089156;28;20425;-73
2023/09/16 12:32:17;;;;;;;3.90;3.50;;;30.70;99.90;;;;;;5071270;28;20416;-72
2023/09/16 12:34:43;;;;;;;4.50;3.67;;;30.40;99.90;;;;;;5089464;28;21021;-74